sensor_id;sensor_type;location;lat;lon;timestamp;P1;durP1;ratioP1;P2;durP2;ratioP2
77010;SDS011;65945;53.148;17.956;2023-04-24T00:01:52;15.50;;;9.90;;
77010;SDS011;65945;53.148;17.956;2023-04-24T00:04:19;16.30;;;9.50;;
77010;SDS011;65945;53.148;17.956;2023-04-24T00:06:45;15.90;;;10.80;;
77010;SDS011;65945;53.148;17.956;2023-04-24T00:09:15;14.70;;;10.20;;
77010;SDS011;65945;53.148;17.956;2023-04-24T00:11:42;19.10;;;11.10;;
77010;SDS011;65945;53.148;17.956;2023-04-24T00:14:08;14.10;;;10.20;;
77010;SDS011;65945;53.148;17.956;2023-04-24T00:16:35;14.70;;;9.90;;
77010;SDS011;65945;53.148;17.956;2023-04-24T00:19:02;13.70;;;9.70;;
77010;SDS011;65945;53.148;17.956;2023-04-24T00:21:28;17.10;;;10.50;;
77010;SDS011;65945;53.148;17.956;2023-04-24T00:23:56;14.70;;;9.10;;
77010;SDS011;65945;53.148;17.956;2023-04-24T00:26:22;16.10;;;9.50;;
77010;SDS011;65945;53.148;17.956;2023-04-24T00:28:49;12.90;;;10.10;;
77010;SDS011;65945;53.148;17.956;2023-04-24T00:31:16;15.10;;;10.80;;
77010;SDS011;65945;53.148;17.956;2023-04-24T00:33:42;15.80;;;10.80;;
77010;SDS011;65945;53.148;17.956;2023-04-24T00:36:09;16.00;;;10.70;;
77010;SDS011;65945;53.148;17.956;2023-04-24T00:38:36;17.50;;;10.90;;
77010;SDS011;65945;53.148;17.956;2023-04-24T00:41:03;20.30;;;12.60;;
77010;SDS011;65945;53.148;17.956;2023-04-24T00:43:30;16.50;;;11.20;;
77010;SDS011;65945;53.148;17.956;2023-04-24T00:45:56;14.00;;;10.30;;
77010;SDS011;65945;53.148;17.956;2023-04-24T00:48:23;17.50;;;11.10;;
77010;SDS011;65945;53.148;17.956;2023-04-24T00:50:51;18.20;;;12.00;;
77010;SDS011;65945;53.148;17.956;2023-04-24T00:53:18;17.00;;;11.70;;
77010;SDS011;65945;53.148;17.956;2023-04-24T00:55:44;19.60;;;12.20;;
77010;SDS011;65945;53.148;17.956;2023-04-24T00:58:12;17.10;;;12.10;;
77010;SDS011;65945;53.148;17.956;2023-04-24T01:00:39;19.00;;;12.10;;
77010;SDS011;65945;53.148;17.956;2023-04-24T01:03:06;19.90;;;12.10;;
77010;SDS011;65945;53.148;17.956;2023-04-24T01:05:33;20.80;;;12.50;;
77010;SDS011;65945;53.148;17.956;2023-04-24T01:08:00;16.90;;;12.00;;
77010;SDS011;65945;53.148;17.956;2023-04-24T01:10:28;19.60;;;13.00;;
77010;SDS011;65945;53.148;17.956;2023-04-24T01:12:57;16.60;;;11.50;;
77010;SDS011;65945;53.148;17.956;2023-04-24T01:15:24;23.10;;;13.20;;
77010;SDS011;65945;53.148;17.956;2023-04-24T01:17:51;20.40;;;12.10;;
77010;SDS011;65945;53.148;17.956;2023-04-24T01:20:17;19.40;;;12.00;;
77010;SDS011;65945;53.148;17.956;2023-04-24T01:22:44;17.40;;;12.00;;
77010;SDS011;65945;53.148;17.956;2023-04-24T01:25:11;15.40;;;11.20;;
77010;SDS011;65945;53.148;17.956;2023-04-24T01:27:37;16.70;;;11.90;;
77010;SDS011;65945;53.148;17.956;2023-04-24T01:30:05;15.80;;;11.10;;
77010;SDS011;65945;53.148;17.956;2023-04-24T01:32:33;16.80;;;12.10;;
77010;SDS011;65945;53.148;17.956;2023-04-24T01:35:00;19.90;;;12.70;;
77010;SDS011;65945;53.148;17.956;2023-04-24T01:37:27;16.00;;;11.80;;
77010;SDS011;65945;53.148;17.956;2023-04-24T01:39:54;16.60;;;11.60;;
77010;SDS011;65945;53.148;17.956;2023-04-24T01:42:21;18.80;;;11.60;;
77010;SDS011;65945;53.148;17.956;2023-04-24T01:44:47;16.60;;;11.80;;
77010;SDS011;65945;53.148;17.956;2023-04-24T01:47:14;16.10;;;11.30;;
77010;SDS011;65945;53.148;17.956;2023-04-24T01:49:41;19.80;;;11.50;;
77010;SDS011;65945;53.148;17.956;2023-04-24T01:52:08;17.30;;;11.90;;
77010;SDS011;65945;53.148;17.956;2023-04-24T01:54:34;17.50;;;11.50;;
77010;SDS011;65945;53.148;17.956;2023-04-24T01:57:02;20.50;;;12.30;;
77010;SDS011;65945;53.148;17.956;2023-04-24T01:59:29;19.30;;;12.30;;
77010;SDS011;65945;53.148;17.956;2023-04-24T02:01:56;20.20;;;12.40;;
77010;SDS011;65945;53.148;17.956;2023-04-24T02:04:23;16.50;;;11.90;;
77010;SDS011;65945;53.148;17.956;2023-04-24T02:06:49;17.00;;;12.10;;
77010;SDS011;65945;53.148;17.956;2023-04-24T02:09:16;20.40;;;12.20;;
77010;SDS011;65945;53.148;17.956;2023-04-24T02:11:43;19.80;;;12.10;;
77010;SDS011;65945;53.148;17.956;2023-04-24T02:14:10;18.30;;;12.40;;
77010;SDS011;65945;53.148;17.956;2023-04-24T02:16:40;18.90;;;12.30;;
77010;SDS011;65945;53.148;17.956;2023-04-24T02:19:06;19.00;;;12.10;;
77010;SDS011;65945;53.148;17.956;2023-04-24T02:21:33;15.80;;;11.10;;
77010;SDS011;65945;53.148;17.956;2023-04-24T02:24:01;18.40;;;12.00;;
77010;SDS011;65945;53.148;17.956;2023-04-24T02:26:28;16.70;;;11.70;;
77010;SDS011;65945;53.148;17.956;2023-04-24T02:28:55;19.50;;;12.10;;
77010;SDS011;65945;53.148;17.956;2023-04-24T02:31:21;17.90;;;12.30;;
77010;SDS011;65945;53.148;17.956;2023-04-24T02:33:48;16.50;;;12.00;;
77010;SDS011;65945;53.148;17.956;2023-04-24T02:36:15;20.80;;;12.00;;
77010;SDS011;65945;53.148;17.956;2023-04-24T02:38:41;18.80;;;13.00;;
77010;SDS011;65945;53.148;17.956;2023-04-24T02:41:08;16.90;;;12.20;;
77010;SDS011;65945;53.148;17.956;2023-04-24T02:43:34;19.00;;;12.10;;
77010;SDS011;65945;53.148;17.956;2023-04-24T02:46:01;15.50;;;11.30;;
77010;SDS011;65945;53.148;17.956;2023-04-24T02:48:29;16.50;;;12.10;;
77010;SDS011;65945;53.148;17.956;2023-04-24T02:50:55;17.20;;;12.40;;
77010;SDS011;65945;53.148;17.956;2023-04-24T02:53:23;17.10;;;12.30;;
77010;SDS011;65945;53.148;17.956;2023-04-24T02:55:50;16.80;;;12.40;;
77010;SDS011;65945;53.148;17.956;2023-04-24T02:58:17;19.30;;;12.50;;
77010;SDS011;65945;53.148;17.956;2023-04-24T03:00:46;20.00;;;13.80;;
77010;SDS011;65945;53.148;17.956;2023-04-24T03:03:13;19.70;;;13.70;;
77010;SDS011;65945;53.148;17.956;2023-04-24T03:05:41;18.10;;;13.50;;
77010;SDS011;65945;53.148;17.956;2023-04-24T03:08:08;21.60;;;14.60;;
77010;SDS011;65945;53.148;17.956;2023-04-24T03:10:34;21.40;;;14.80;;
77010;SDS011;65945;53.148;17.956;2023-04-24T03:13:01;20.80;;;14.40;;
77010;SDS011;65945;53.148;17.956;2023-04-24T03:15:27;20.40;;;13.60;;
77010;SDS011;65945;53.148;17.956;2023-04-24T03:17:54;19.50;;;13.70;;
77010;SDS011;65945;53.148;17.956;2023-04-24T03:20:21;18.20;;;12.70;;
77010;SDS011;65945;53.148;17.956;2023-04-24T03:22:48;20.90;;;12.80;;
77010;SDS011;65945;53.148;17.956;2023-04-24T03:25:16;19.60;;;13.70;;
77010;SDS011;65945;53.148;17.956;2023-04-24T03:27:43;18.10;;;13.60;;
77010;SDS011;65945;53.148;17.956;2023-04-24T03:30:41;19.60;;;12.40;;
77010;SDS011;65945;53.148;17.956;2023-04-24T03:33:09;20.80;;;13.10;;
77010;SDS011;65945;53.148;17.956;2023-04-24T03:35:38;19.20;;;12.80;;
77010;SDS011;65945;53.148;17.956;2023-04-24T03:38:08;20.80;;;13.00;;
77010;SDS011;65945;53.148;17.956;2023-04-24T03:40:55;17.10;;;13.20;;
77010;SDS011;65945;53.148;17.956;2023-04-24T03:43:36;20.70;;;13.00;;
77010;SDS011;65945;53.148;17.956;2023-04-24T03:46:02;16.70;;;12.60;;
77010;SDS011;65945;53.148;17.956;2023-04-24T03:48:30;22.80;;;13.60;;
77010;SDS011;65945;53.148;17.956;2023-04-24T03:50:57;23.10;;;14.10;;
77010;SDS011;65945;53.148;17.956;2023-04-24T03:53:23;22.30;;;14.40;;
77010;SDS011;65945;53.148;17.956;2023-04-24T03:55:50;21.80;;;14.70;;
77010;SDS011;65945;53.148;17.956;2023-04-24T03:58:17;21.60;;;15.00;;
77010;SDS011;65945;53.148;17.956;2023-04-24T04:00:44;22.30;;;15.30;;
77010;SDS011;65945;53.148;17.956;2023-04-24T04:03:33;21.90;;;13.70;;
77010;SDS011;65945;53.148;17.956;2023-04-24T04:05:59;17.50;;;13.80;;
77010;SDS011;65945;53.148;17.956;2023-04-24T04:08:27;20.90;;;13.80;;
77010;SDS011;65945;53.148;17.956;2023-04-24T04:10:54;18.50;;;12.80;;
77010;SDS011;65945;53.148;17.956;2023-04-24T04:13:21;22.60;;;15.00;;
77010;SDS011;65945;53.148;17.956;2023-04-24T04:15:47;22.90;;;14.80;;
77010;SDS011;65945;53.148;17.956;2023-04-24T04:18:14;20.70;;;15.80;;
77010;SDS011;65945;53.148;17.956;2023-04-24T04:20:41;32.90;;;15.80;;
77010;SDS011;65945;53.148;17.956;2023-04-24T04:23:08;20.80;;;15.90;;
77010;SDS011;65945;53.148;17.956;2023-04-24T04:25:43;22.30;;;15.40;;
77010;SDS011;65945;53.148;17.956;2023-04-24T04:28:09;23.80;;;15.00;;
77010;SDS011;65945;53.148;17.956;2023-04-24T04:30:36;25.10;;;14.70;;
77010;SDS011;65945;53.148;17.956;2023-04-24T04:33:05;18.10;;;13.00;;
77010;SDS011;65945;53.148;17.956;2023-04-24T04:35:31;22.70;;;14.90;;
77010;SDS011;65945;53.148;17.956;2023-04-24T04:37:58;24.00;;;16.90;;
77010;SDS011;65945;53.148;17.956;2023-04-24T04:40:43;26.40;;;17.90;;
77010;SDS011;65945;53.148;17.956;2023-04-24T04:43:11;29.20;;;17.70;;
77010;SDS011;65945;53.148;17.956;2023-04-24T04:45:44;26.30;;;17.10;;
77010;SDS011;65945;53.148;17.956;2023-04-24T04:48:26;22.20;;;16.30;;
77010;SDS011;65945;53.148;17.956;2023-04-24T04:50:55;24.30;;;17.10;;
77010;SDS011;65945;53.148;17.956;2023-04-24T04:53:22;30.10;;;17.90;;
77010;SDS011;65945;53.148;17.956;2023-04-24T04:55:48;22.90;;;15.70;;
77010;SDS011;65945;53.148;17.956;2023-04-24T04:58:16;27.40;;;16.60;;
77010;SDS011;65945;53.148;17.956;2023-04-24T05:00:44;25.90;;;18.30;;
77010;SDS011;65945;53.148;17.956;2023-04-24T05:03:16;31.00;;;16.30;;
77010;SDS011;65945;53.148;17.956;2023-04-24T05:05:42;21.90;;;15.40;;
77010;SDS011;65945;53.148;17.956;2023-04-24T05:08:11;30.80;;;15.40;;
77010;SDS011;65945;53.148;17.956;2023-04-24T05:10:38;24.30;;;14.20;;
77010;SDS011;65945;53.148;17.956;2023-04-24T05:13:04;22.30;;;15.50;;
77010;SDS011;65945;53.148;17.956;2023-04-24T05:15:31;22.00;;;14.20;;
77010;SDS011;65945;53.148;17.956;2023-04-24T05:17:58;20.60;;;14.10;;
77010;SDS011;65945;53.148;17.956;2023-04-24T05:20:25;21.10;;;14.60;;
77010;SDS011;65945;53.148;17.956;2023-04-24T05:22:52;18.40;;;13.40;;
77010;SDS011;65945;53.148;17.956;2023-04-24T05:25:19;22.00;;;13.70;;
77010;SDS011;65945;53.148;17.956;2023-04-24T05:27:52;20.70;;;13.50;;
77010;SDS011;65945;53.148;17.956;2023-04-24T05:30:19;21.30;;;13.80;;
77010;SDS011;65945;53.148;17.956;2023-04-24T05:32:46;20.20;;;14.00;;
77010;SDS011;65945;53.148;17.956;2023-04-24T05:35:13;24.90;;;16.10;;
77010;SDS011;65945;53.148;17.956;2023-04-24T05:37:40;23.80;;;15.30;;
77010;SDS011;65945;53.148;17.956;2023-04-24T05:40:07;24.60;;;15.30;;
77010;SDS011;65945;53.148;17.956;2023-04-24T05:42:35;26.90;;;16.90;;
77010;SDS011;65945;53.148;17.956;2023-04-24T05:45:01;27.00;;;17.50;;
77010;SDS011;65945;53.148;17.956;2023-04-24T05:47:29;24.00;;;17.10;;
77010;SDS011;65945;53.148;17.956;2023-04-24T05:49:56;22.50;;;14.20;;
77010;SDS011;65945;53.148;17.956;2023-04-24T05:52:23;20.40;;;14.20;;
77010;SDS011;65945;53.148;17.956;2023-04-24T05:54:50;22.20;;;13.20;;
77010;SDS011;65945;53.148;17.956;2023-04-24T05:57:20;20.00;;;13.60;;
77010;SDS011;65945;53.148;17.956;2023-04-24T05:59:53;21.30;;;13.00;;
77010;SDS011;65945;53.148;17.956;2023-04-24T06:02:20;19.80;;;13.90;;
77010;SDS011;65945;53.148;17.956;2023-04-24T06:04:47;27.70;;;13.30;;
77010;SDS011;65945;53.148;17.956;2023-04-24T06:07:14;25.30;;;14.20;;
77010;SDS011;65945;53.148;17.956;2023-04-24T06:09:41;25.10;;;12.80;;
77010;SDS011;65945;53.148;17.956;2023-04-24T06:12:08;24.10;;;13.90;;
77010;SDS011;65945;53.148;17.956;2023-04-24T06:14:47;23.10;;;14.60;;
77010;SDS011;65945;53.148;17.956;2023-04-24T06:17:25;23.50;;;14.10;;
77010;SDS011;65945;53.148;17.956;2023-04-24T06:19:51;24.70;;;13.40;;
77010;SDS011;65945;53.148;17.956;2023-04-24T06:22:18;21.00;;;12.40;;
77010;SDS011;65945;53.148;17.956;2023-04-24T06:24:45;19.90;;;13.00;;
77010;SDS011;65945;53.148;17.956;2023-04-24T06:27:12;20.70;;;13.40;;
77010;SDS011;65945;53.148;17.956;2023-04-24T06:29:40;19.40;;;12.90;;
77010;SDS011;65945;53.148;17.956;2023-04-24T06:32:07;20.30;;;13.40;;
77010;SDS011;65945;53.148;17.956;2023-04-24T06:34:34;20.10;;;12.80;;
77010;SDS011;65945;53.148;17.956;2023-04-24T06:37:01;18.30;;;12.00;;
77010;SDS011;65945;53.148;17.956;2023-04-24T06:39:28;19.30;;;11.80;;
77010;SDS011;65945;53.148;17.956;2023-04-24T06:41:55;19.30;;;12.40;;
77010;SDS011;65945;53.148;17.956;2023-04-24T06:44:24;20.70;;;11.90;;
77010;SDS011;65945;53.148;17.956;2023-04-24T06:46:51;15.00;;;11.70;;
77010;SDS011;65945;53.148;17.956;2023-04-24T06:49:18;17.50;;;11.90;;
77010;SDS011;65945;53.148;17.956;2023-04-24T06:51:44;16.90;;;10.80;;
77010;SDS011;65945;53.148;17.956;2023-04-24T06:54:11;16.90;;;10.40;;
77010;SDS011;65945;53.148;17.956;2023-04-24T06:56:38;16.00;;;10.30;;
77010;SDS011;65945;53.148;17.956;2023-04-24T06:59:04;15.30;;;10.20;;
77010;SDS011;65945;53.148;17.956;2023-04-24T07:01:31;14.10;;;10.10;;
77010;SDS011;65945;53.148;17.956;2023-04-24T07:03:57;14.20;;;10.10;;
77010;SDS011;65945;53.148;17.956;2023-04-24T07:06:24;12.10;;;8.70;;
77010;SDS011;65945;53.148;17.956;2023-04-24T07:08:51;12.50;;;8.20;;
77010;SDS011;65945;53.148;17.956;2023-04-24T07:11:17;16.40;;;8.90;;
77010;SDS011;65945;53.148;17.956;2023-04-24T07:13:44;15.50;;;9.60;;
77010;SDS011;65945;53.148;17.956;2023-04-24T07:16:10;16.10;;;9.00;;
77010;SDS011;65945;53.148;17.956;2023-04-24T07:18:38;14.20;;;9.00;;
77010;SDS011;65945;53.148;17.956;2023-04-24T07:21:06;20.60;;;9.30;;
77010;SDS011;65945;53.148;17.956;2023-04-24T07:23:33;11.90;;;8.10;;
77010;SDS011;65945;53.148;17.956;2023-04-24T07:26:00;12.90;;;8.50;;
77010;SDS011;65945;53.148;17.956;2023-04-24T07:28:26;13.40;;;8.10;;
77010;SDS011;65945;53.148;17.956;2023-04-24T07:30:53;13.20;;;7.80;;
77010;SDS011;65945;53.148;17.956;2023-04-24T07:33:20;13.00;;;7.60;;
77010;SDS011;65945;53.148;17.956;2023-04-24T07:35:47;13.50;;;7.60;;
77010;SDS011;65945;53.148;17.956;2023-04-24T07:38:13;13.50;;;7.20;;
77010;SDS011;65945;53.148;17.956;2023-04-24T07:40:40;12.00;;;6.60;;
77010;SDS011;65945;53.148;17.956;2023-04-24T07:43:07;11.40;;;6.80;;
77010;SDS011;65945;53.148;17.956;2023-04-24T07:45:33;9.90;;;6.50;;
77010;SDS011;65945;53.148;17.956;2023-04-24T07:48:03;10.60;;;6.70;;
77010;SDS011;65945;53.148;17.956;2023-04-24T07:50:30;12.60;;;6.70;;
77010;SDS011;65945;53.148;17.956;2023-04-24T07:52:57;10.70;;;7.00;;
77010;SDS011;65945;53.148;17.956;2023-04-24T07:55:24;10.40;;;6.70;;
77010;SDS011;65945;53.148;17.956;2023-04-24T07:57:50;10.70;;;6.90;;
77010;SDS011;65945;53.148;17.956;2023-04-24T08:00:17;9.80;;;6.50;;
77010;SDS011;65945;53.148;17.956;2023-04-24T08:02:44;11.30;;;6.30;;
77010;SDS011;65945;53.148;17.956;2023-04-24T08:05:11;10.10;;;6.30;;
77010;SDS011;65945;53.148;17.956;2023-04-24T08:07:38;10.40;;;6.10;;
77010;SDS011;65945;53.148;17.956;2023-04-24T08:10:05;10.20;;;5.80;;
77010;SDS011;65945;53.148;17.956;2023-04-24T08:12:32;11.40;;;6.60;;
77010;SDS011;65945;53.148;17.956;2023-04-24T08:14:58;9.70;;;5.30;;
77010;SDS011;65945;53.148;17.956;2023-04-24T08:17:25;8.70;;;5.40;;
77010;SDS011;65945;53.148;17.956;2023-04-24T08:19:52;8.40;;;5.60;;
77010;SDS011;65945;53.148;17.956;2023-04-24T08:22:25;10.00;;;5.60;;
77010;SDS011;65945;53.148;17.956;2023-04-24T08:24:51;9.50;;;5.30;;
77010;SDS011;65945;53.148;17.956;2023-04-24T08:27:18;8.20;;;5.60;;
77010;SDS011;65945;53.148;17.956;2023-04-24T08:29:45;7.50;;;4.80;;
77010;SDS011;65945;53.148;17.956;2023-04-24T08:32:11;10.40;;;4.90;;
77010;SDS011;65945;53.148;17.956;2023-04-24T08:34:38;10.40;;;4.80;;
77010;SDS011;65945;53.148;17.956;2023-04-24T08:37:05;9.80;;;4.80;;
77010;SDS011;65945;53.148;17.956;2023-04-24T08:39:31;9.70;;;5.00;;
77010;SDS011;65945;53.148;17.956;2023-04-24T08:41:58;8.10;;;4.70;;
77010;SDS011;65945;53.148;17.956;2023-04-24T08:44:32;8.40;;;4.90;;
77010;SDS011;65945;53.148;17.956;2023-04-24T08:46:58;8.00;;;4.70;;
77010;SDS011;65945;53.148;17.956;2023-04-24T08:49:26;9.40;;;5.10;;
77010;SDS011;65945;53.148;17.956;2023-04-24T08:51:53;9.10;;;4.80;;
77010;SDS011;65945;53.148;17.956;2023-04-24T08:54:21;8.60;;;4.60;;
77010;SDS011;65945;53.148;17.956;2023-04-24T08:56:48;7.20;;;4.80;;
77010;SDS011;65945;53.148;17.956;2023-04-24T08:59:15;7.70;;;4.50;;
77010;SDS011;65945;53.148;17.956;2023-04-24T09:01:42;7.60;;;4.70;;
77010;SDS011;65945;53.148;17.956;2023-04-24T09:04:11;7.90;;;4.70;;
77010;SDS011;65945;53.148;17.956;2023-04-24T09:06:41;7.50;;;4.70;;
77010;SDS011;65945;53.148;17.956;2023-04-24T09:09:08;8.20;;;4.90;;
77010;SDS011;65945;53.148;17.956;2023-04-24T09:11:37;8.30;;;5.00;;
77010;SDS011;65945;53.148;17.956;2023-04-24T09:14:04;10.90;;;6.30;;
77010;SDS011;65945;53.148;17.956;2023-04-24T09:16:31;11.10;;;6.40;;
77010;SDS011;65945;53.148;17.956;2023-04-24T09:18:59;9.50;;;5.60;;
77010;SDS011;65945;53.148;17.956;2023-04-24T09:21:27;9.70;;;5.40;;
77010;SDS011;65945;53.148;17.956;2023-04-24T09:24:05;9.00;;;4.80;;
77010;SDS011;65945;53.148;17.956;2023-04-24T09:26:36;9.30;;;5.10;;
77010;SDS011;65945;53.148;17.956;2023-04-24T09:29:03;7.50;;;4.90;;
77010;SDS011;65945;53.148;17.956;2023-04-24T09:31:31;7.90;;;4.70;;
77010;SDS011;65945;53.148;17.956;2023-04-24T09:33:59;10.60;;;5.10;;
77010;SDS011;65945;53.148;17.956;2023-04-24T09:36:31;10.00;;;5.50;;
77010;SDS011;65945;53.148;17.956;2023-04-24T09:39:05;9.00;;;5.60;;
77010;SDS011;65945;53.148;17.956;2023-04-24T09:46:45;9.60;;;4.70;;
77010;SDS011;65945;53.148;17.956;2023-04-24T09:49:19;9.00;;;4.70;;
77010;SDS011;65945;53.148;17.956;2023-04-24T09:51:48;8.20;;;5.00;;
77010;SDS011;65945;53.148;17.956;2023-04-24T09:54:16;11.50;;;5.60;;
77010;SDS011;65945;53.148;17.956;2023-04-24T09:56:45;8.10;;;5.20;;
77010;SDS011;65945;53.148;17.956;2023-04-24T09:59:16;9.70;;;5.10;;
77010;SDS011;65945;53.148;17.956;2023-04-24T10:01:45;9.50;;;5.50;;
77010;SDS011;65945;53.148;17.956;2023-04-24T10:04:53;9.30;;;4.90;;
77010;SDS011;65945;53.148;17.956;2023-04-24T10:07:05;6.80;;;4.80;;
77010;SDS011;65945;53.148;17.956;2023-04-24T10:09:32;9.80;;;5.50;;
77010;SDS011;65945;53.148;17.956;2023-04-24T10:11:59;8.70;;;5.50;;
77010;SDS011;65945;53.148;17.956;2023-04-24T10:14:28;7.70;;;4.80;;
77010;SDS011;65945;53.148;17.956;2023-04-24T10:16:55;10.70;;;6.40;;
77010;SDS011;65945;53.148;17.956;2023-04-24T10:19:25;11.80;;;6.50;;
77010;SDS011;65945;53.148;17.956;2023-04-24T10:21:52;8.00;;;5.50;;
77010;SDS011;65945;53.148;17.956;2023-04-24T10:24:20;6.70;;;4.90;;
77010;SDS011;65945;53.148;17.956;2023-04-24T10:26:47;12.40;;;5.20;;
77010;SDS011;65945;53.148;17.956;2023-04-24T10:29:16;10.30;;;5.50;;
77010;SDS011;65945;53.148;17.956;2023-04-24T10:31:44;9.30;;;5.50;;
77010;SDS011;65945;53.148;17.956;2023-04-24T10:34:14;9.10;;;5.40;;
77010;SDS011;65945;53.148;17.956;2023-04-24T10:36:43;9.90;;;5.30;;
77010;SDS011;65945;53.148;17.956;2023-04-24T10:39:14;9.10;;;5.30;;
77010;SDS011;65945;53.148;17.956;2023-04-24T10:41:42;9.70;;;5.20;;
77010;SDS011;65945;53.148;17.956;2023-04-24T10:44:13;9.10;;;4.90;;
77010;SDS011;65945;53.148;17.956;2023-04-24T10:46:44;15.60;;;4.60;;
77010;SDS011;65945;53.148;17.956;2023-04-24T10:49:16;7.80;;;5.10;;
77010;SDS011;65945;53.148;17.956;2023-04-24T10:51:52;7.20;;;4.30;;
77010;SDS011;65945;53.148;17.956;2023-04-24T10:54:27;7.80;;;4.60;;
77010;SDS011;65945;53.148;17.956;2023-04-24T10:59:44;7.30;;;4.90;;
77010;SDS011;65945;53.148;17.956;2023-04-24T11:02:14;9.00;;;5.20;;
77010;SDS011;65945;53.148;17.956;2023-04-24T11:04:41;7.10;;;4.40;;
77010;SDS011;65945;53.148;17.956;2023-04-24T11:07:11;8.30;;;4.60;;
77010;SDS011;65945;53.148;17.956;2023-04-24T11:09:38;7.90;;;4.90;;
77010;SDS011;65945;53.148;17.956;2023-04-24T11:12:09;7.10;;;4.40;;
77010;SDS011;65945;53.148;17.956;2023-04-24T11:17:35;11.00;;;5.00;;
77010;SDS011;65945;53.148;17.956;2023-04-24T11:20:04;6.90;;;4.80;;
77010;SDS011;65945;53.148;17.956;2023-04-24T11:22:38;7.60;;;4.60;;
77010;SDS011;65945;53.148;17.956;2023-04-24T11:25:06;7.30;;;4.60;;
77010;SDS011;65945;53.148;17.956;2023-04-24T11:27:40;8.90;;;5.60;;
77010;SDS011;65945;53.148;17.956;2023-04-24T11:30:07;8.80;;;5.20;;
77010;SDS011;65945;53.148;17.956;2023-04-24T11:35:18;10.50;;;6.70;;
77010;SDS011;65945;53.148;17.956;2023-04-24T11:37:52;11.10;;;7.10;;
77010;SDS011;65945;53.148;17.956;2023-04-24T11:40:20;8.40;;;4.80;;
77010;SDS011;65945;53.148;17.956;2023-04-24T11:42:52;8.10;;;4.30;;
77010;SDS011;65945;53.148;17.956;2023-04-24T11:45:23;8.00;;;4.60;;
77010;SDS011;65945;53.148;17.956;2023-04-24T11:47:51;7.10;;;4.60;;
77010;SDS011;65945;53.148;17.956;2023-04-24T11:50:18;8.30;;;4.80;;
77010;SDS011;65945;53.148;17.956;2023-04-24T11:52:49;6.70;;;4.40;;
77010;SDS011;65945;53.148;17.956;2023-04-24T11:57:43;8.90;;;4.60;;
77010;SDS011;65945;53.148;17.956;2023-04-24T12:00:20;6.90;;;4.40;;
77010;SDS011;65945;53.148;17.956;2023-04-24T12:03:02;9.40;;;4.70;;
77010;SDS011;65945;53.148;17.956;2023-04-24T12:05:37;9.70;;;4.30;;
77010;SDS011;65945;53.148;17.956;2023-04-24T12:08:05;7.60;;;4.60;;
77010;SDS011;65945;53.148;17.956;2023-04-24T12:10:33;8.90;;;4.90;;
77010;SDS011;65945;53.148;17.956;2023-04-24T12:13:01;7.20;;;4.70;;
77010;SDS011;65945;53.148;17.956;2023-04-24T12:15:27;8.90;;;5.50;;
77010;SDS011;65945;53.148;17.956;2023-04-24T12:17:55;7.70;;;5.20;;
77010;SDS011;65945;53.148;17.956;2023-04-24T12:20:26;11.60;;;5.00;;
77010;SDS011;65945;53.148;17.956;2023-04-24T12:22:59;10.50;;;4.90;;
77010;SDS011;65945;53.148;17.956;2023-04-24T12:25:27;6.50;;;4.70;;
77010;SDS011;65945;53.148;17.956;2023-04-24T12:30:33;6.10;;;4.50;;
77010;SDS011;65945;53.148;17.956;2023-04-24T12:33:02;6.00;;;4.20;;
77010;SDS011;65945;53.148;17.956;2023-04-24T12:35:30;6.40;;;4.10;;
77010;SDS011;65945;53.148;17.956;2023-04-24T12:38:06;17.30;;;4.90;;
77010;SDS011;65945;53.148;17.956;2023-04-24T12:40:34;10.80;;;5.20;;
77010;SDS011;65945;53.148;17.956;2023-04-24T12:43:01;9.30;;;5.70;;
77010;SDS011;65945;53.148;17.956;2023-04-24T12:45:28;8.90;;;5.90;;
77010;SDS011;65945;53.148;17.956;2023-04-24T12:47:55;8.70;;;5.70;;
77010;SDS011;65945;53.148;17.956;2023-04-24T12:50:21;10.10;;;5.90;;
77010;SDS011;65945;53.148;17.956;2023-04-24T12:52:48;8.10;;;5.70;;
77010;SDS011;65945;53.148;17.956;2023-04-24T12:55:14;7.70;;;5.60;;
77010;SDS011;65945;53.148;17.956;2023-04-24T12:57:41;10.00;;;6.40;;
77010;SDS011;65945;53.148;17.956;2023-04-24T13:00:08;9.50;;;5.30;;
77010;SDS011;65945;53.148;17.956;2023-04-24T13:02:36;9.40;;;5.90;;
77010;SDS011;65945;53.148;17.956;2023-04-24T13:05:03;7.60;;;5.80;;
77010;SDS011;65945;53.148;17.956;2023-04-24T13:07:29;10.50;;;4.90;;
77010;SDS011;65945;53.148;17.956;2023-04-24T13:09:56;9.90;;;5.70;;
77010;SDS011;65945;53.148;17.956;2023-04-24T13:12:26;6.60;;;4.90;;
77010;SDS011;65945;53.148;17.956;2023-04-24T13:14:53;7.70;;;4.40;;
77010;SDS011;65945;53.148;17.956;2023-04-24T13:17:20;7.10;;;5.30;;
77010;SDS011;65945;53.148;17.956;2023-04-24T13:19:49;6.80;;;4.10;;
77010;SDS011;65945;53.148;17.956;2023-04-24T13:22:17;9.50;;;5.60;;
77010;SDS011;65945;53.148;17.956;2023-04-24T13:24:47;9.20;;;5.10;;
77010;SDS011;65945;53.148;17.956;2023-04-24T13:27:15;7.60;;;4.40;;
77010;SDS011;65945;53.148;17.956;2023-04-24T13:29:42;10.70;;;4.60;;
77010;SDS011;65945;53.148;17.956;2023-04-24T13:32:09;7.20;;;4.20;;
77010;SDS011;65945;53.148;17.956;2023-04-24T13:34:36;8.30;;;4.60;;
77010;SDS011;65945;53.148;17.956;2023-04-24T13:37:03;7.90;;;4.20;;
77010;SDS011;65945;53.148;17.956;2023-04-24T13:39:31;6.90;;;4.70;;
77010;SDS011;65945;53.148;17.956;2023-04-24T13:41:58;10.10;;;4.90;;
77010;SDS011;65945;53.148;17.956;2023-04-24T13:44:25;6.20;;;3.90;;
77010;SDS011;65945;53.148;17.956;2023-04-24T13:46:52;6.40;;;3.90;;
77010;SDS011;65945;53.148;17.956;2023-04-24T13:49:20;6.80;;;3.40;;
77010;SDS011;65945;53.148;17.956;2023-04-24T13:51:48;5.60;;;3.70;;
77010;SDS011;65945;53.148;17.956;2023-04-24T13:54:14;5.60;;;3.80;;
77010;SDS011;65945;53.148;17.956;2023-04-24T13:56:41;6.50;;;4.00;;
77010;SDS011;65945;53.148;17.956;2023-04-24T13:59:08;7.30;;;4.10;;
77010;SDS011;65945;53.148;17.956;2023-04-24T14:01:35;7.70;;;4.70;;
77010;SDS011;65945;53.148;17.956;2023-04-24T14:04:02;8.00;;;4.10;;
77010;SDS011;65945;53.148;17.956;2023-04-24T14:06:28;5.10;;;4.20;;
77010;SDS011;65945;53.148;17.956;2023-04-24T14:08:55;6.30;;;4.40;;
77010;SDS011;65945;53.148;17.956;2023-04-24T14:11:22;6.80;;;4.90;;
77010;SDS011;65945;53.148;17.956;2023-04-24T14:13:48;6.30;;;4.70;;
77010;SDS011;65945;53.148;17.956;2023-04-24T14:16:15;7.00;;;4.90;;
77010;SDS011;65945;53.148;17.956;2023-04-24T14:18:42;9.50;;;4.50;;
77010;SDS011;65945;53.148;17.956;2023-04-24T14:21:08;7.00;;;4.80;;
77010;SDS011;65945;53.148;17.956;2023-04-24T14:23:35;6.30;;;4.70;;
77010;SDS011;65945;53.148;17.956;2023-04-24T14:26:02;9.00;;;4.70;;
77010;SDS011;65945;53.148;17.956;2023-04-24T14:28:28;8.20;;;4.90;;
77010;SDS011;65945;53.148;17.956;2023-04-24T14:30:55;7.30;;;4.10;;
77010;SDS011;65945;53.148;17.956;2023-04-24T14:33:22;7.70;;;3.90;;
77010;SDS011;65945;53.148;17.956;2023-04-24T14:35:48;15.90;;;4.00;;
77010;SDS011;65945;53.148;17.956;2023-04-24T14:38:15;6.40;;;3.40;;
77010;SDS011;65945;53.148;17.956;2023-04-24T14:40:42;4.80;;;3.10;;
77010;SDS011;65945;53.148;17.956;2023-04-24T14:43:08;13.30;;;3.70;;
77010;SDS011;65945;53.148;17.956;2023-04-24T14:45:36;6.30;;;3.40;;